N5120W KBOI-KSLC
Flight info
| Callsign | N5120W |
|---|---|
| Flight time | N/A |
| Altitude | 20000 |
| Route | BYI LHO TCH |
| Aircraft | B350/M-S/2000 |
Departure
| Time | N/A |
|---|---|
| Airport | Boise Air Terminal/Gowen Field (KBOI) |
Arrival
| Time | 2026-05-05 16:20 |
|---|---|
| Airport | Salt Lake City International Airport (KSLC) |
| Time | Latitude | Longitude | Altitude | Speed | Heading |
|---|---|---|---|---|---|
| 2026-05-05 15:50 | 42.46547 | -113.70933 | 19861 ft | 324 kts | 128° |
| 2026-05-05 15:50 | 42.44939 | -113.68820 | 19889 ft | 321 kts | 130° |
| 2026-05-05 15:50 | 42.43354 | -113.66707 | 19897 ft | 319 kts | 129° |
| 2026-05-05 15:51 | 42.41787 | -113.64616 | 19906 ft | 318 kts | 129° |
| 2026-05-05 15:51 | 42.40205 | -113.62508 | 19908 ft | 317 kts | 129° |
| 2026-05-05 15:51 | 42.38638 | -113.60421 | 19911 ft | 316 kts | 129° |
| 2026-05-05 15:51 | 42.37085 | -113.58353 | 19910 ft | 316 kts | 129° |
| 2026-05-05 15:52 | 42.35469 | -113.56347 | 19938 ft | 316 kts | 135° |
| 2026-05-05 15:52 | 42.33877 | -113.54285 | 19937 ft | 318 kts | 133° |
| 2026-05-05 15:52 | 42.32301 | -113.52196 | 19939 ft | 319 kts | 133° |
| 2026-05-05 15:52 | 42.30714 | -113.50088 | 19939 ft | 321 kts | 133° |
| 2026-05-05 15:53 | 42.29127 | -113.47983 | 19936 ft | 322 kts | 133° |
| 2026-05-05 15:53 | 42.27531 | -113.45865 | 19941 ft | 322 kts | 133° |
| 2026-05-05 15:53 | 42.25936 | -113.43752 | 19934 ft | 323 kts | 133° |
| 2026-05-05 15:53 | 42.24324 | -113.41617 | 19935 ft | 324 kts | 133° |
| 2026-05-05 15:54 | 42.22729 | -113.39506 | 19937 ft | 324 kts | 133° |
| 2026-05-05 15:54 | 42.21115 | -113.37373 | 19939 ft | 324 kts | 133° |
| 2026-05-05 15:54 | 42.19508 | -113.35249 | 19937 ft | 324 kts | 133° |
| 2026-05-05 15:54 | 42.17914 | -113.33144 | 19937 ft | 324 kts | 134° |
| 2026-05-05 15:55 | 42.16284 | -113.30993 | 19927 ft | 325 kts | 134° |
| 2026-05-05 15:55 | 42.14670 | -113.28866 | 19922 ft | 325 kts | 134° |
| 2026-05-05 15:55 | 42.13070 | -113.26759 | 19927 ft | 325 kts | 134° |
| 2026-05-05 15:55 | 42.11444 | -113.24617 | 19918 ft | 325 kts | 134° |
| 2026-05-05 15:56 | 42.09837 | -113.22504 | 19922 ft | 325 kts | 134° |
| 2026-05-05 15:56 | 42.08214 | -113.20370 | 19921 ft | 325 kts | 134° |
| 2026-05-05 15:56 | 42.06622 | -113.18280 | 19921 ft | 325 kts | 134° |
| 2026-05-05 15:56 | 42.05002 | -113.16155 | 19923 ft | 325 kts | 134° |
| 2026-05-05 15:57 | 42.03379 | -113.14026 | 19918 ft | 325 kts | 134° |
| 2026-05-05 15:57 | 42.01776 | -113.11926 | 19916 ft | 325 kts | 134° |
| 2026-05-05 15:57 | 42.00151 | -113.09798 | 19912 ft | 324 kts | 134° |
| 2026-05-05 15:57 | 41.98554 | -113.07709 | 19915 ft | 324 kts | 134° |
| 2026-05-05 15:58 | 41.96928 | -113.05583 | 19919 ft | 324 kts | 134° |
| 2026-05-05 15:58 | 41.95318 | -113.03480 | 19914 ft | 324 kts | 134° |
| 2026-05-05 15:58 | 41.93713 | -113.01386 | 19911 ft | 324 kts | 134° |
| 2026-05-05 15:58 | 41.92101 | -112.99282 | 19914 ft | 324 kts | 134° |
| 2026-05-05 15:59 | 41.90463 | -112.97193 | 19915 ft | 324 kts | 135° |
| 2026-05-05 15:59 | 41.88788 | -112.95139 | 19913 ft | 324 kts | 136° |
| 2026-05-05 15:59 | 41.87116 | -112.93166 | 19911 ft | 324 kts | 137° |
| 2026-05-05 15:59 | 41.85404 | -112.91223 | 19916 ft | 324 kts | 139° |
| 2026-05-05 16:00 | 41.83669 | -112.89329 | 19921 ft | 323 kts | 140° |
| 2026-05-05 16:00 | 41.81882 | -112.87455 | 19922 ft | 324 kts | 141° |
| 2026-05-05 16:00 | 41.80088 | -112.85646 | 19927 ft | 323 kts | 142° |
| 2026-05-05 16:00 | 41.78260 | -112.83875 | 19927 ft | 324 kts | 143° |
| 2026-05-05 16:01 | 41.76425 | -112.82169 | 19928 ft | 324 kts | 144° |
| 2026-05-05 16:01 | 41.74555 | -112.80500 | 19928 ft | 324 kts | 145° |
| 2026-05-05 16:01 | 41.72666 | -112.78883 | 19927 ft | 324 kts | 146° |
| 2026-05-05 16:01 | 41.70757 | -112.77316 | 19927 ft | 324 kts | 147° |
| 2026-05-05 16:02 | 41.68834 | -112.75806 | 19905 ft | 313 kts | 148° |
| 2026-05-05 16:02 | 41.66976 | -112.74413 | 19913 ft | 300 kts | 149° |
| 2026-05-05 16:02 | 41.65207 | -112.73099 | 19903 ft | 289 kts | 148° |
| 2026-05-05 16:02 | 41.63431 | -112.71732 | 19510 ft | 294 kts | 148° |
| 2026-05-05 16:03 | 41.61658 | -112.70367 | 19139 ft | 297 kts | 148° |
| 2026-05-05 16:03 | 41.59877 | -112.68997 | 18768 ft | 300 kts | 148° |
| 2026-05-05 16:03 | 41.58058 | -112.67598 | 18398 ft | 302 kts | 148° |
| 2026-05-05 16:03 | 41.56230 | -112.66193 | 18030 ft | 303 kts | 148° |
| 2026-05-05 16:04 | 41.54396 | -112.64784 | 17665 ft | 304 kts | 148° |
| 2026-05-05 16:04 | 41.52566 | -112.63378 | 17303 ft | 305 kts | 148° |
| 2026-05-05 16:04 | 41.50750 | -112.61985 | 16946 ft | 305 kts | 148° |
| 2026-05-05 16:04 | 41.48905 | -112.60569 | 16745 ft | 299 kts | 148° |
| 2026-05-05 16:05 | 41.47162 | -112.59232 | 16799 ft | 286 kts | 148° |
| 2026-05-05 16:05 | 41.45466 | -112.57921 | 16808 ft | 275 kts | 145° |
| 2026-05-05 16:05 | 41.44238 | -112.56130 | 16787 ft | 256 kts | 111° |
| 2026-05-05 16:05 | 41.43706 | -112.53963 | 16824 ft | 244 kts | 103° |
| 2026-05-05 16:06 | 41.43225 | -112.51752 | 16503 ft | 253 kts | 102° |
| 2026-05-05 16:06 | 41.42736 | -112.49500 | 16150 ft | 260 kts | 103° |
| 2026-05-05 16:06 | 41.42223 | -112.47148 | 15785 ft | 267 kts | 103° |
| 2026-05-05 16:06 | 41.41704 | -112.44767 | 15420 ft | 272 kts | 103° |
| 2026-05-05 16:07 | 41.41175 | -112.42342 | 15054 ft | 277 kts | 103° |
| 2026-05-05 16:07 | 41.40634 | -112.39868 | 14688 ft | 280 kts | 103° |
| 2026-05-05 16:07 | 41.40085 | -112.37363 | 14321 ft | 283 kts | 103° |
| 2026-05-05 16:07 | 41.39536 | -112.34855 | 13953 ft | 285 kts | 104° |
| 2026-05-05 16:08 | 41.38978 | -112.32317 | 13586 ft | 287 kts | 104° |
| 2026-05-05 16:08 | 41.38062 | -112.29964 | 13223 ft | 293 kts | 128° |
| 2026-05-05 16:08 | 41.36661 | -112.27958 | 12890 ft | 295 kts | 133° |
| 2026-05-05 16:08 | 41.35202 | -112.26048 | 12536 ft | 295 kts | 135° |
| 2026-05-05 16:09 | 41.33716 | -112.24152 | 12176 ft | 296 kts | 135° |
| 2026-05-05 16:09 | 41.32252 | -112.22292 | 11932 ft | 292 kts | 135° |
| 2026-05-05 16:09 | 41.30804 | -112.20455 | 11882 ft | 282 kts | 135° |
| 2026-05-05 16:09 | 41.29416 | -112.18694 | 11882 ft | 273 kts | 135° |
| 2026-05-05 16:10 | 41.28069 | -112.16988 | 11882 ft | 265 kts | 135° |
| 2026-05-05 16:10 | 41.26749 | -112.15315 | 11887 ft | 258 kts | 135° |
| 2026-05-05 16:10 | 41.25468 | -112.13695 | 11884 ft | 253 kts | 135° |
| 2026-05-05 16:10 | 41.24199 | -112.12088 | 11893 ft | 247 kts | 135° |
| 2026-05-05 16:11 | 41.22975 | -112.10541 | 11890 ft | 243 kts | 135° |
| 2026-05-05 16:11 | 41.18912 | -112.06832 | 11893 ft | 235 kts | 149° |
| 2026-05-05 16:12 | 41.17532 | -112.05721 | 11902 ft | 231 kts | 142° |
| 2026-05-05 16:12 | 41.15561 | -112.02486 | 11733 ft | 226 kts | 112° |
| 2026-05-05 16:13 | 41.13157 | -111.97202 | 11662 ft | 227 kts | 131° |
| 2026-05-05 16:13 | 41.11886 | -111.96022 | 11536 ft | 234 kts | 158° |
| 2026-05-05 16:13 | 41.10258 | -111.95598 | 11255 ft | 236 kts | 175° |
| 2026-05-05 16:14 | 41.07040 | -111.95871 | 10642 ft | 221 kts | 184° |
| 2026-05-05 16:14 | 41.04585 | -111.96153 | 11310 ft | 131 kts | 189° |
| 2026-05-05 16:15 | 41.02202 | -111.96275 | 10085 ft | 189 kts | 176° |
| 2026-05-05 16:15 | 40.99484 | -111.96076 | 9660 ft | 194 kts | 180° |
| 2026-05-05 16:16 | 40.96908 | -111.96164 | 9182 ft | 180 kts | 184° |
| 2026-05-05 16:16 | 40.94447 | -111.96135 | 8574 ft | 181 kts | 180° |
| 2026-05-05 16:17 | 40.91949 | -111.96085 | 7907 ft | 179 kts | 179° |
| 2026-05-05 16:17 | 40.90704 | -111.96075 | 7500 ft | 180 kts | 181° |
| 2026-05-05 16:18 | 40.88311 | -111.96059 | 6644 ft | 169 kts | 180° |
| 2026-05-05 16:18 | 40.87139 | -111.96100 | 6037 ft | 170 kts | 184° |
| 2026-05-05 16:18 | 40.85104 | -111.96159 | 5464 ft | 129 kts | 179° |
| 2026-05-05 16:19 | 40.84228 | -111.96195 | 5244 ft | 124 kts | 181° |
| 2026-05-05 16:19 | 40.83386 | -111.96213 | 5035 ft | 121 kts | 179° |
| 2026-05-05 16:19 | 40.81754 | -111.96205 | 4692 ft | 116 kts | 178° |
| 2026-05-05 16:20 | 40.80149 | -111.96208 | 4333 ft | 113 kts | 178° |
| 2026-05-05 16:20 | 40.79004 | -111.96205 | 4225 ft | 17 kts | 180° |
| 2026-05-05 16:21 | 40.78728 | -111.96200 | 4225 ft | 14 kts | 184° |